Time;durP1;ratioP1;P1;durP2;ratioP2;P2;SDS_P1;SDS_P2;PMS_P1;PMS_P2;Temp;Humidity;BMP_temperature;BMP_pressure;BME280_temperature;BME280_humidity;BME280_pressure;Samples;Min_cycle;Max_cycle;Signal;HPM_P1;HPM_P2
2023/12/19 00:01:50;;;;;;;8.10;5.40;;;;;;;;;;4985833;28;20668;-42
2023/12/19 00:04:16;;;;;;;6.80;5.10;;;;;;;;;;4983727;28;20492;-42
2023/12/19 00:06:42;;;;;;;138.93;37.97;;;;;;;;;;4982950;28;20402;-42
2023/12/19 00:09:08;;;;;;;167.63;43.80;;;;;;;;;;4984093;28;20563;-42
2023/12/19 00:11:34;;;;;;;141.03;41.27;;;;;;;;;;4982539;28;20431;-42
2023/12/19 00:14:00;;;;;;;90.63;26.45;;;;;;;;;;4983006;28;20479;-42
2023/12/19 00:16:26;;;;;;;129.82;35.50;;;;;;;;;;4982247;28;20592;-42
2023/12/19 00:18:53;;;;;;;152.55;42.10;;;;;;;;;;4987494;28;20213;-42
2023/12/19 00:21:19;;;;;;;205.77;53.45;;;;;;;;;;4981513;28;20192;-42
2023/12/19 00:23:45;;;;;;;183.25;47.30;;;;;;;;;;4980827;28;20554;-42
2023/12/19 00:26:15;;;;;;;137.87;41.93;;;;;;;;;;4982737;28;20178;-42
2023/12/19 00:28:43;;;;;;;107.68;34.45;;;;;;;;;;4981723;28;20950;-42
2023/12/19 00:31:09;;;;;;;200.38;50.92;;;;;;;;;;4984175;28;20182;-42
2023/12/19 00:33:35;;;;;;;208.25;52.97;;;;;;;;;;4985037;28;20182;-42
2023/12/19 00:36:01;;;;;;;192.60;52.47;;;;;;;;;;4985780;28;20192;-42
2023/12/19 00:38:27;;;;;;;188.27;51.90;;;;;;;;;;4976661;28;20472;-42
2023/12/19 00:40:53;;;;;;;217.65;54.28;;;;;;;;;;4981803;28;20418;-42
2023/12/19 00:43:19;;;;;;;216.63;52.75;;;;;;;;;;4985032;28;20303;-42
2023/12/19 00:45:46;;;;;;;214.97;52.60;;;;;;;;;;4983590;28;20240;-42
2023/12/19 00:48:13;;;;;;;220.98;56.05;;;;;;;;;;4983573;28;20765;-42
2023/12/19 00:50:39;;;;;;;214.25;53.10;;;;;;;;;;4982657;28;20171;-42
2023/12/19 00:53:05;;;;;;;96.67;29.93;;;;;;;;;;4984086;28;20195;-42
2023/12/19 00:55:31;;;;;;;179.70;45.67;;;;;;;;;;4979697;28;20409;-42
2023/12/19 00:57:56;;;;;;;170.67;43.10;;;;;;;;;;4984102;28;20421;-42
2023/12/19 01:00:23;;;;;;;110.57;30.53;;;;;;;;;;4982893;28;20830;-42
2023/12/19 01:02:49;;;;;;;214.80;53.75;;;;;;;;;;4984489;28;20456;-42
2023/12/19 01:05:14;;;;;;;213.73;52.20;;;;;;;;;;4984223;28;20258;-42
2023/12/19 01:07:40;;;;;;;214.57;52.50;;;;;;;;;;4981443;28;20409;-42
2023/12/19 01:10:07;;;;;;;71.87;22.20;;;;;;;;;;4981818;28;20439;-42
2023/12/19 01:12:33;;;;;;;211.75;52.17;;;;;;;;;;4981288;28;20418;-42
2023/12/19 01:14:59;;;;;;;210.98;51.60;;;;;;;;;;4987067;28;20601;-42
2023/12/19 01:17:25;;;;;;;214.70;54.13;;;;;;;;;;4981705;28;20269;-42
2023/12/19 01:19:51;;;;;;;215.60;53.33;;;;;;;;;;4978945;28;20957;-43
2023/12/19 01:22:17;;;;;;;212.20;52.40;;;;;;;;;;4982337;28;20519;-42
2023/12/19 01:24:43;;;;;;;214.97;52.97;;;;;;;;;;4981473;28;20255;-42
2023/12/19 01:27:09;;;;;;;213.85;53.08;;;;;;;;;;4983202;28;20413;-42
2023/12/19 01:29:35;;;;;;;213.97;52.57;;;;;;;;;;4984259;28;20244;-42
2023/12/19 01:32:01;;;;;;;217.93;54.10;;;;;;;;;;4985021;28;20568;-42
2023/12/19 01:34:27;;;;;;;214.13;52.80;;;;;;;;;;4980356;28;20428;-42
2023/12/19 01:36:54;;;;;;;216.10;53.77;;;;;;;;;;4977273;28;20967;-42
2023/12/19 01:39:21;;;;;;;214.75;52.83;;;;;;;;;;4983860;28;20450;-42
2023/12/19 01:41:47;;;;;;;214.13;53.38;;;;;;;;;;4983148;28;20377;-42
2023/12/19 01:44:20;;;;;;;212.57;52.07;;;;;;;;;;4983711;28;20176;-42
2023/12/19 01:46:47;;;;;;;214.93;53.47;;;;;;;;;;4981152;28;20979;-42
2023/12/19 01:49:13;;;;;;;213.35;53.00;;;;;;;;;;4982004;28;20209;-42
2023/12/19 01:51:39;;;;;;;214.40;53.67;;;;;;;;;;4980236;28;20169;-42
2023/12/19 01:54:07;;;;;;;214.65;53.60;;;;;;;;;;4982303;28;20177;-42
2023/12/19 01:56:33;;;;;;;212.55;52.60;;;;;;;;;;4984080;28;20648;-42
2023/12/19 01:59:00;;;;;;;138.32;36.30;;;;;;;;;;4979897;28;20213;-42
2023/12/19 02:01:26;;;;;;;183.57;46.40;;;;;;;;;;4984907;28;20178;-42
2023/12/19 02:03:52;;;;;;;215.23;54.10;;;;;;;;;;4984127;28;20668;-42
2023/12/19 02:06:21;;;;;;;212.93;55.00;;;;;;;;;;4983160;28;20253;-43
2023/12/19 02:08:48;;;;;;;215.38;54.17;;;;;;;;;;4983190;28;20807;-42
2023/12/19 02:11:14;;;;;;;211.48;52.60;;;;;;;;;;4990460;28;20170;-43
2023/12/19 02:13:42;;;;;;;210.30;53.37;;;;;;;;;;4984993;28;20185;-42
2023/12/19 02:16:08;;;;;;;215.48;54.90;;;;;;;;;;4987437;28;20424;-42
2023/12/19 02:18:34;;;;;;;202.57;54.35;;;;;;;;;;4983407;28;20198;-43
2023/12/19 02:21:00;;;;;;;200.77;50.90;;;;;;;;;;4985727;28;20177;-42
2023/12/19 02:23:26;;;;;;;206.47;53.00;;;;;;;;;;4988094;28;20590;-42
2023/12/19 02:25:52;;;;;;;213.18;53.42;;;;;;;;;;4985924;28;20417;-43
2023/12/19 02:28:18;;;;;;;217.40;56.42;;;;;;;;;;4988691;28;20278;-43
2023/12/19 02:30:44;;;;;;;215.93;55.47;;;;;;;;;;4986362;28;20236;-43
2023/12/19 02:33:10;;;;;;;213.90;53.43;;;;;;;;;;4981268;28;20189;-43
2023/12/19 02:35:36;;;;;;;214.20;53.55;;;;;;;;;;4987876;28;20411;-43
2023/12/19 02:38:02;;;;;;;215.37;54.00;;;;;;;;;;4985271;28;20190;-43
2023/12/19 02:40:29;;;;;;;213.50;52.83;;;;;;;;;;4984290;28;20509;-42
2023/12/19 02:42:55;;;;;;;213.80;53.58;;;;;;;;;;4984744;28;20195;-42
2023/12/19 02:45:21;;;;;;;214.03;53.67;;;;;;;;;;4986764;28;20567;-43
2023/12/19 02:47:47;;;;;;;212.63;52.90;;;;;;;;;;4984877;28;20439;-43
2023/12/19 02:50:13;;;;;;;191.97;50.97;;;;;;;;;;4984568;28;20726;-43
2023/12/19 02:52:39;;;;;;;9.50;8.50;;;;;;;;;;4988899;28;20413;-42
2023/12/19 02:55:05;;;;;;;75.47;23.73;;;;;;;;;;4984094;28;20424;-43
2023/12/19 02:57:31;;;;;;;212.40;54.55;;;;;;;;;;4985170;28;20412;-42
2023/12/19 02:59:57;;;;;;;215.15;54.85;;;;;;;;;;4984314;28;20804;-42
2023/12/19 03:02:23;;;;;;;209.33;52.47;;;;;;;;;;4984704;28;20213;-43
2023/12/19 03:04:49;;;;;;;212.87;53.37;;;;;;;;;;4984062;28;20492;-42
2023/12/19 03:07:15;;;;;;;215.07;54.30;;;;;;;;;;4990243;28;20415;-42
2023/12/19 03:09:41;;;;;;;203.50;51.77;;;;;;;;;;4986949;28;21120;-42
2023/12/19 03:12:07;;;;;;;215.77;55.27;;;;;;;;;;4986287;28;20463;-43
2023/12/19 03:14:34;;;;;;;207.93;52.45;;;;;;;;;;4995495;28;20443;-43
2023/12/19 03:17:01;;;;;;;201.10;53.97;;;;;;;;;;4976916;28;20186;-43
2023/12/19 03:19:27;;;;;;;195.05;51.83;;;;;;;;;;4975733;28;20285;-43
2023/12/19 03:21:54;;;;;;;205.48;53.65;;;;;;;;;;4984788;28;20252;-42
2023/12/19 03:24:20;;;;;;;206.80;54.10;;;;;;;;;;4989806;28;20182;-43
2023/12/19 03:26:46;;;;;;;213.37;54.73;;;;;;;;;;4977020;28;20178;-43
2023/12/19 03:29:12;;;;;;;212.18;54.45;;;;;;;;;;4994814;28;20436;-42
2023/12/19 03:31:38;;;;;;;210.95;54.22;;;;;;;;;;4994006;28;20209;-43
2023/12/19 03:34:04;;;;;;;214.23;56.40;;;;;;;;;;4980661;28;20180;-42
2023/12/19 03:36:30;;;;;;;207.60;52.43;;;;;;;;;;4975328;28;20409;-42
2023/12/19 03:38:56;;;;;;;211.20;52.95;;;;;;;;;;4974807;28;20691;-42
2023/12/19 03:41:22;;;;;;;215.45;56.17;;;;;;;;;;4975459;28;20206;-43
2023/12/19 03:43:48;;;;;;;212.57;53.03;;;;;;;;;;4975522;28;20173;-42
2023/12/19 03:46:14;;;;;;;215.63;54.58;;;;;;;;;;4975272;28;20173;-43
2023/12/19 03:48:41;;;;;;;213.18;54.03;;;;;;;;;;4975013;28;20201;-43
2023/12/19 03:51:07;;;;;;;214.50;54.22;;;;;;;;;;4975215;28;20204;-43
2023/12/19 03:53:34;;;;;;;213.32;53.85;;;;;;;;;;4975208;28;20175;-42
2023/12/19 03:56:00;;;;;;;210.60;53.08;;;;;;;;;;4975000;28;20170;-43
2023/12/19 03:58:26;;;;;;;218.60;57.00;;;;;;;;;;4974957;28;20170;-43
2023/12/19 04:00:51;;;;;;;214.30;54.20;;;;;;;;;;4974942;28;20193;-42
2023/12/19 04:03:17;;;;;;;187.10;47.60;;;;;;;;;;4974787;28;20579;-42
2023/12/19 04:05:43;;;;;;;212.10;54.37;;;;;;;;;;4974841;28;20422;-43
2023/12/19 04:08:09;;;;;;;190.37;49.63;;;;;;;;;;4974572;28;20417;-42
2023/12/19 04:10:36;;;;;;;195.68;51.53;;;;;;;;;;4975110;28;20491;-42
2023/12/19 04:13:02;;;;;;;111.72;33.28;;;;;;;;;;4974794;28;20241;-42
2023/12/19 04:15:30;;;;;;;194.82;51.13;;;;;;;;;;4975068;28;20261;-42
2023/12/19 04:17:56;;;;;;;153.77;46.40;;;;;;;;;;4974758;28;20262;-43
2023/12/19 04:20:22;;;;;;;179.13;47.80;;;;;;;;;;4974356;28;20221;-42
2023/12/19 04:22:48;;;;;;;204.38;51.47;;;;;;;;;;4973802;28;20965;-42
2023/12/19 04:25:13;;;;;;;214.73;54.95;;;;;;;;;;4974644;28;20167;-42
2023/12/19 04:27:40;;;;;;;172.10;47.53;;;;;;;;;;4974431;28;20672;-42
2023/12/19 04:30:06;;;;;;;182.88;47.90;;;;;;;;;;4973804;28;20813;-43
2023/12/19 04:32:32;;;;;;;32.00;14.55;;;;;;;;;;4974303;28;20253;-42
2023/12/19 04:34:58;;;;;;;207.30;52.27;;;;;;;;;;4979609;28;20178;-42
2023/12/19 04:37:24;;;;;;;211.90;54.60;;;;;;;;;;4986307;28;20499;-43
2023/12/19 04:39:50;;;;;;;208.18;53.33;;;;;;;;;;4985082;28;20507;-42
2023/12/19 04:42:19;;;;;;;210.60;52.72;;;;;;;;;;4979425;28;20260;-43
2023/12/19 04:44:46;;;;;;;213.80;53.40;;;;;;;;;;4986100;28;20174;-42
2023/12/19 04:47:12;;;;;;;209.98;53.88;;;;;;;;;;4984714;28;21114;-43
2023/12/19 04:49:39;;;;;;;213.70;55.00;;;;;;;;;;4984064;28;20200;-42
2023/12/19 04:52:05;;;;;;;208.02;53.08;;;;;;;;;;4983568;28;20185;-42
2023/12/19 04:54:31;;;;;;;213.05;53.85;;;;;;;;;;4983869;28;20181;-42
2023/12/19 04:56:57;;;;;;;209.20;52.25;;;;;;;;;;4983895;28;20192;-42
2023/12/19 04:59:23;;;;;;;206.53;52.27;;;;;;;;;;4977966;28;20216;-42
2023/12/19 05:01:49;;;;;;;189.93;49.10;;;;;;;;;;4985283;28;21050;-42
2023/12/19 05:04:15;;;;;;;206.77;52.07;;;;;;;;;;4982284;28;20406;-43
2023/12/19 05:06:41;;;;;;;177.20;45.50;;;;;;;;;;4982279;28;20424;-42
2023/12/19 05:09:07;;;;;;;208.50;53.27;;;;;;;;;;4983441;28;20677;-42
2023/12/19 05:11:33;;;;;;;209.07;52.15;;;;;;;;;;4975965;28;20902;-43
2023/12/19 05:13:59;;;;;;;204.97;51.40;;;;;;;;;;4982164;28;20240;-42
2023/12/19 05:16:25;;;;;;;165.97;49.07;;;;;;;;;;4981544;28;20889;-42
2023/12/19 05:18:51;;;;;;;197.95;52.65;;;;;;;;;;4986347;28;20989;-42
2023/12/19 05:21:20;;;;;;;195.73;51.57;;;;;;;;;;4980468;28;20266;-42
2023/12/19 05:23:47;;;;;;;198.07;52.90;;;;;;;;;;4979777;28;20474;-43
2023/12/19 05:26:13;;;;;;;197.80;52.55;;;;;;;;;;4981957;28;20174;-43
2023/12/19 05:28:39;;;;;;;200.48;53.63;;;;;;;;;;4984148;28;20662;-43
2023/12/19 05:31:05;;;;;;;190.98;49.20;;;;;;;;;;4983795;28;20529;-43
2023/12/19 05:33:32;;;;;;;207.87;52.30;;;;;;;;;;4984817;28;20184;-43
2023/12/19 05:35:58;;;;;;;172.30;49.45;;;;;;;;;;4985169;28;20833;-43
2023/12/19 05:38:24;;;;;;;195.47;55.13;;;;;;;;;;4979482;28;20178;-44
2023/12/19 05:40:52;;;;;;;191.90;51.20;;;;;;;;;;4977642;28;20422;-43
2023/12/19 05:43:17;;;;;;;173.57;48.38;;;;;;;;;;4983423;28;20228;-43
2023/12/19 05:45:43;;;;;;;206.90;51.97;;;;;;;;;;4983182;28;20256;-43
2023/12/19 05:48:09;;;;;;;181.50;46.90;;;;;;;;;;4983505;28;20914;-43
2023/12/19 05:50:36;;;;;;;9.93;8.97;;;;;;;;;;4982571;28;20902;-43
2023/12/19 05:53:02;;;;;;;190.90;50.17;;;;;;;;;;4983468;28;20492;-42
2023/12/19 05:55:28;;;;;;;202.38;52.35;;;;;;;;;;4978565;28;20216;-43
2023/12/19 05:57:54;;;;;;;206.17;51.90;;;;;;;;;;4984520;28;20206;-43
2023/12/19 06:00:20;;;;;;;210.65;53.50;;;;;;;;;;4981840;28;20531;-43
2023/12/19 06:02:49;;;;;;;210.80;52.75;;;;;;;;;;4981131;28;20201;-43
2023/12/19 06:05:15;;;;;;;213.27;52.38;;;;;;;;;;4983238;28;20643;-42
2023/12/19 06:07:41;;;;;;;210.27;51.30;;;;;;;;;;4981111;28;20250;-43
2023/12/19 06:10:08;;;;;;;214.57;53.78;;;;;;;;;;4981081;28;20441;-43
2023/12/19 06:12:35;;;;;;;212.45;52.28;;;;;;;;;;4980958;28;20183;-43
2023/12/19 06:15:02;;;;;;;211.68;52.13;;;;;;;;;;4986373;28;20209;-43
2023/12/19 06:17:28;;;;;;;214.27;54.05;;;;;;;;;;4981652;28;20180;-43
2023/12/19 06:19:54;;;;;;;212.75;51.97;;;;;;;;;;4978098;28;20194;-43
2023/12/19 06:22:20;;;;;;;214.07;54.47;;;;;;;;;;4980372;28;20293;-43
2023/12/19 06:24:46;;;;;;;211.45;52.42;;;;;;;;;;4979633;28;20403;-43
2023/12/19 06:27:15;;;;;;;214.43;54.47;;;;;;;;;;4982424;28;20713;-43
2023/12/19 06:29:42;;;;;;;146.70;38.60;;;;;;;;;;4980811;28;20194;-43
2023/12/19 06:32:11;;;;;;;210.50;52.97;;;;;;;;;;4983627;28;20212;-43
2023/12/19 06:34:37;;;;;;;211.02;51.78;;;;;;;;;;4980061;28;20261;-43
2023/12/19 06:37:03;;;;;;;210.23;51.70;;;;;;;;;;4975727;28;20270;-43
2023/12/19 06:39:29;;;;;;;209.65;51.67;;;;;;;;;;4983296;28;20209;-42
2023/12/19 06:41:55;;;;;;;210.20;52.67;;;;;;;;;;4981569;28;20197;-43
2023/12/19 06:44:21;;;;;;;212.45;53.67;;;;;;;;;;4983486;28;20674;-42
2023/12/19 06:46:49;;;;;;;211.60;53.05;;;;;;;;;;4992904;28;20178;-43
2023/12/19 06:49:18;;;;;;;205.50;50.95;;;;;;;;;;4990030;28;20274;-42
2023/12/19 06:51:44;;;;;;;214.38;54.13;;;;;;;;;;4976739;28;20545;-43
2023/12/19 06:54:10;;;;;;;212.35;52.90;;;;;;;;;;4995429;28;20178;-43
2023/12/19 06:56:36;;;;;;;206.45;51.30;;;;;;;;;;4978102;28;20180;-43
2023/12/19 06:59:03;;;;;;;210.27;53.20;;;;;;;;;;4975235;28;20261;-42
2023/12/19 07:01:29;;;;;;;209.23;53.15;;;;;;;;;;4975499;28;20407;-42
2023/12/19 07:03:55;;;;;;;209.80;52.43;;;;;;;;;;4975993;28;20234;-42
2023/12/19 07:06:22;;;;;;;212.20;53.80;;;;;;;;;;4975461;28;20449;-42
2023/12/19 07:08:48;;;;;;;210.00;53.17;;;;;;;;;;4975338;28;20498;-42
2023/12/19 07:11:14;;;;;;;208.13;52.40;;;;;;;;;;4975361;28;20267;-42
2023/12/19 07:13:40;;;;;;;209.93;52.67;;;;;;;;;;4975294;28;20414;-42
2023/12/19 07:16:06;;;;;;;210.00;53.65;;;;;;;;;;4975315;28;20184;-42
2023/12/19 07:18:33;;;;;;;211.35;55.92;;;;;;;;;;4975005;28;20283;-42
2023/12/19 07:20:59;;;;;;;208.10;53.60;;;;;;;;;;4975208;28;20176;-42
2023/12/19 07:23:25;;;;;;;209.15;53.00;;;;;;;;;;4975320;28;20199;-43
2023/12/19 07:25:52;;;;;;;208.18;53.10;;;;;;;;;;4975099;28;20614;-42
2023/12/19 07:28:17;;;;;;;210.00;53.78;;;;;;;;;;4974763;28;20682;-42
2023/12/19 07:30:43;;;;;;;209.57;54.50;;;;;;;;;;4975164;28;20202;-42
2023/12/19 07:33:09;;;;;;;206.57;52.00;;;;;;;;;;4975150;28;20417;-43
2023/12/19 07:35:35;;;;;;;205.43;53.27;;;;;;;;;;4974993;28;20496;-43
2023/12/19 07:38:01;;;;;;;202.33;52.70;;;;;;;;;;4975166;28;20404;-42
2023/12/19 07:40:27;;;;;;;206.27;52.67;;;;;;;;;;4974508;28;20433;-42
2023/12/19 07:42:53;;;;;;;95.43;27.08;;;;;;;;;;4974779;28;20465;-42
2023/12/19 07:45:19;;;;;;;205.40;52.00;;;;;;;;;;4974803;28;20554;-43
2023/12/19 07:47:45;;;;;;;42.50;16.00;;;;;;;;;;4974800;28;20486;-43
2023/12/19 07:50:11;;;;;;;210.13;54.10;;;;;;;;;;4974405;28;20227;-42
2023/12/19 07:52:37;;;;;;;208.25;52.72;;;;;;;;;;4974871;28;20238;-43
2023/12/19 07:55:09;;;;;;;208.27;53.20;;;;;;;;;;4974568;28;20183;-43
2023/12/19 07:57:37;;;;;;;54.05;19.80;;;;;;;;;;4973592;28;20172;-43
2023/12/19 08:00:03;;;;;;;178.07;47.25;;;;;;;;;;4974165;28;20215;-43
2023/12/19 08:02:32;;;;;;;208.23;54.05;;;;;;;;;;4974649;28;20295;-42
2023/12/19 08:04:58;;;;;;;214.90;60.65;;;;;;;;;;4972976;28;20222;-43
2023/12/19 08:07:24;;;;;;;207.10;53.35;;;;;;;;;;4982172;28;20254;-43
2023/12/19 08:09:50;;;;;;;208.73;54.53;;;;;;;;;;4982190;28;20615;-42
2023/12/19 08:12:16;;;;;;;204.30;52.47;;;;;;;;;;4983045;28;20413;-43
2023/12/19 08:14:42;;;;;;;195.17;51.57;;;;;;;;;;4986628;28;20908;-42
2023/12/19 08:17:08;;;;;;;209.17;54.40;;;;;;;;;;4987718;28;20934;-43
2023/12/19 08:19:34;;;;;;;194.00;53.10;;;;;;;;;;4980014;28;20462;-43
2023/12/19 08:22:00;;;;;;;198.50;53.77;;;;;;;;;;4983497;28;20454;-43
2023/12/19 08:24:26;;;;;;;199.63;52.77;;;;;;;;;;4985746;28;20414;-43
2023/12/19 08:26:52;;;;;;;200.30;53.97;;;;;;;;;;4982635;28;20420;-43
2023/12/19 08:29:19;;;;;;;199.10;53.45;;;;;;;;;;4978953;28;20438;-43
2023/12/19 08:31:46;;;;;;;202.60;53.80;;;;;;;;;;4982853;28;20689;-43
2023/12/19 08:34:12;;;;;;;201.60;54.33;;;;;;;;;;4977954;28;20179;-43
2023/12/19 08:36:38;;;;;;;198.10;52.03;;;;;;;;;;4985351;28;20178;-43
2023/12/19 08:39:07;;;;;;;200.87;53.43;;;;;;;;;;4981941;28;20203;-43
2023/12/19 08:41:33;;;;;;;202.68;54.13;;;;;;;;;;4983237;28;20496;-42
2023/12/19 08:43:59;;;;;;;203.25;53.13;;;;;;;;;;4982977;28;20284;-43
2023/12/19 08:46:25;;;;;;;202.63;53.23;;;;;;;;;;4982564;28;20615;-43
2023/12/19 08:48:51;;;;;;;199.50;52.03;;;;;;;;;;4981650;28;20434;-43
2023/12/19 08:51:25;;;;;;;199.67;52.37;;;;;;;;;;4981842;28;20415;-43
2023/12/19 08:53:51;;;;;;;199.10;53.00;;;;;;;;;;4989281;28;20428;-43
2023/12/19 08:56:17;;;;;;;196.47;52.23;;;;;;;;;;4986811;28;20278;-42
2023/12/19 09:01:26;;;;;;;197.23;65.35;;;;;;;;;;5642385;22;20459;-45
2023/12/19 09:03:52;;;;;;;192.10;53.63;;;;;;;;;;4949470;28;20224;-46
2023/12/19 09:06:18;;;;;;;190.25;53.05;;;;;;;;;;4952993;28;20514;-46
2023/12/19 09:08:44;;;;;;;189.57;53.83;;;;;;;;;;4950291;28;20172;-45
2023/12/19 09:11:10;;;;;;;187.80;51.90;;;;;;;;;;4953386;28;20468;-45
2023/12/19 09:13:38;;;;;;;190.20;52.10;;;;;;;;;;4949701;28;20419;-45
2023/12/19 09:16:06;;;;;;;198.13;56.30;;;;;;;;;;4935704;29;20405;-45
2023/12/19 09:18:32;;;;;;;193.18;52.72;;;;;;;;;;4954333;28;20580;-45
2023/12/19 09:20:58;;;;;;;189.90;52.22;;;;;;;;;;4946233;28;20287;-46
2023/12/19 09:23:24;;;;;;;188.15;50.70;;;;;;;;;;4942226;28;20209;-46
2023/12/19 09:25:50;;;;;;;194.40;55.47;;;;;;;;;;4942202;29;20327;-45
2023/12/19 09:28:16;;;;;;;190.93;50.60;;;;;;;;;;4949624;28;20424;-45
2023/12/19 09:30:42;;;;;;;193.75;52.72;;;;;;;;;;4934376;29;20993;-45
2023/12/19 09:33:08;;;;;;;193.23;53.20;;;;;;;;;;4953706;28;20300;-45
2023/12/19 09:35:34;;;;;;;192.87;53.53;;;;;;;;;;4938312;28;20408;-45
2023/12/19 09:38:01;;;;;;;193.67;53.00;;;;;;;;;;4946095;29;20769;-44
2023/12/19 09:40:32;;;;;;;198.95;56.40;;;;;;;;;;4945683;28;20498;-44
2023/12/19 09:42:59;;;;;;;196.68;51.65;;;;;;;;;;4938878;29;20243;-46
2023/12/19 09:45:25;;;;;;;202.95;55.30;;;;;;;;;;4952981;28;20267;-45
2023/12/19 09:47:59;;;;;;;200.95;54.05;;;;;;;;;;4934407;29;20252;-46
2023/12/19 09:50:27;;;;;;;208.60;61.45;;;;;;;;;;4950719;28;20244;-46
2023/12/19 09:52:54;;;;;;;199.57;53.88;;;;;;;;;;4940163;28;20172;-45
2023/12/19 09:55:20;;;;;;;201.35;54.67;;;;;;;;;;4943830;29;20180;-45
2023/12/19 09:57:46;;;;;;;202.35;54.03;;;;;;;;;;4947980;28;20180;-46
2023/12/19 10:00:13;;;;;;;200.82;54.17;;;;;;;;;;4935956;29;20309;-45
2023/12/19 10:02:41;;;;;;;200.63;53.05;;;;;;;;;;4953014;28;20199;-46
2023/12/19 10:05:08;;;;;;;209.82;60.25;;;;;;;;;;4936187;28;20262;-45
2023/12/19 10:07:34;;;;;;;196.15;53.55;;;;;;;;;;4949783;29;20176;-44
2023/12/19 10:10:00;;;;;;;196.65;56.10;;;;;;;;;;4943338;28;20181;-44
2023/12/19 10:12:30;;;;;;;193.13;53.40;;;;;;;;;;4938037;29;20203;-45
2023/12/19 10:15:15;;;;;;;193.77;53.28;;;;;;;;;;4950982;28;20412;-45
2023/12/19 10:17:41;;;;;;;194.15;55.50;;;;;;;;;;4934066;29;20191;-45
2023/12/19 10:20:11;;;;;;;131.52;39.17;;;;;;;;;;4948957;28;20196;-46
2023/12/19 10:22:38;;;;;;;13.30;12.30;;;;;;;;;;4939379;28;20225;-45
2023/12/19 10:25:04;;;;;;;15.05;13.85;;;;;;;;;;4950031;29;20216;-44
2023/12/19 10:27:30;;;;;;;71.40;24.20;;;;;;;;;;4948312;28;20192;-45
2023/12/19 10:30:15;;;;;;;141.38;39.03;;;;;;;;;;4942578;29;20178;-44
2023/12/19 10:32:41;;;;;;;13.45;12.30;;;;;;;;;;4953077;28;20558;-45
2023/12/19 10:35:07;;;;;;;13.93;12.83;;;;;;;;;;4937590;29;20258;-45
2023/12/19 10:37:35;;;;;;;10.70;9.80;;;;;;;;;;4955910;29;20430;-45
2023/12/19 10:40:12;;;;;;;10.05;9.15;;;;;;;;;;4941815;28;20427;-45
2023/12/19 10:42:38;;;;;;;11.80;10.80;;;;;;;;;;4949285;29;20191;-45
2023/12/19 10:45:07;;;;;;;10.77;9.80;;;;;;;;;;4947981;28;20184;-45
2023/12/19 10:47:33;;;;;;;11.73;10.82;;;;;;;;;;4942192;29;20650;-45
2023/12/19 10:49:59;;;;;;;15.25;14.00;;;;;;;;;;4955297;28;20642;-44
2023/12/19 10:52:28;;;;;;;8.98;8.13;;;;;;;;;;4937084;29;20197;-45
2023/12/19 10:55:01;;;;;;;9.95;9.15;;;;;;;;;;4953742;29;20184;-45
2023/12/19 10:57:29;;;;;;;11.20;10.27;;;;;;;;;;4951419;28;20213;-45
2023/12/19 10:59:59;;;;;;;10.07;9.18;;;;;;;;;;4946770;28;20482;-45
2023/12/19 11:02:45;;;;;;;9.75;8.75;;;;;;;;;;4942858;29;20289;-46
2023/12/19 11:05:11;;;;;;;10.93;9.82;;;;;;;;;;4950853;28;20181;-45
2023/12/19 11:07:38;;;;;;;14.07;12.77;;;;;;;;;;4937772;29;20166;-44
2023/12/19 11:10:06;;;;;;;10.57;9.68;;;;;;;;;;4955743;28;20584;-44
2023/12/19 11:12:33;;;;;;;11.10;10.13;;;;;;;;;;4938797;28;20255;-44
2023/12/19 11:14:59;;;;;;;173.65;51.05;;;;;;;;;;4949747;29;20723;-45
2023/12/19 11:17:28;;;;;;;149.40;42.65;;;;;;;;;;4946206;28;20558;-44
2023/12/19 11:20:03;;;;;;;78.18;36.40;;;;;;;;;;4942085;29;20192;-45
2023/12/19 11:22:49;;;;;;;145.02;42.25;;;;;;;;;;4952715;28;20222;-45
2023/12/19 11:25:26;;;;;;;169.38;47.95;;;;;;;;;;4938042;29;20216;-45
2023/12/19 11:28:05;;;;;;;149.48;40.30;;;;;;;;;;4955951;28;20670;-44
2023/12/19 11:30:36;;;;;;;63.05;23.17;;;;;;;;;;4936122;29;20262;-45
2023/12/19 11:33:06;;;;;;;190.90;50.25;;;;;;;;;;4936774;29;20221;-45
2023/12/19 11:35:32;;;;;;;10.50;9.50;;;;;;;;;;4949570;29;20187;-44
2023/12/19 11:38:14;;;;;;;144.50;39.80;;;;;;;;;;4946413;28;20196;-45
2023/12/19 11:40:46;;;;;;;117.13;35.05;;;;;;;;;;4943343;28;20309;-44
2023/12/19 11:43:28;;;;;;;198.05;53.58;;;;;;;;;;4950941;28;20196;-44
2023/12/19 11:45:54;;;;;;;78.30;23.65;;;;;;;;;;4938452;29;20179;-45
2023/12/19 11:48:39;;;;;;;190.93;54.05;;;;;;;;;;4955369;28;20200;-45
2023/12/19 11:51:09;;;;;;;193.10;53.75;;;;;;;;;;4936112;29;20201;-44
2023/12/19 11:53:36;;;;;;;183.68;52.22;;;;;;;;;;4936645;29;20184;-45
2023/12/19 11:56:08;;;;;;;188.60;50.53;;;;;;;;;;4948956;29;20184;-44
2023/12/19 11:58:34;;;;;;;137.18;44.03;;;;;;;;;;4945534;28;20188;-44
2023/12/19 12:01:01;;;;;;;173.88;47.85;;;;;;;;;;4941418;28;20203;-45
2023/12/19 12:03:27;;;;;;;203.70;53.15;;;;;;;;;;4952987;28;20208;-45
2023/12/19 12:05:54;;;;;;;186.50;51.90;;;;;;;;;;4936126;29;20173;-45
2023/12/19 12:08:21;;;;;;;38.78;21.25;;;;;;;;;;4953083;29;20169;-44
2023/12/19 12:11:00;;;;;;;139.00;50.85;;;;;;;;;;4941144;28;20235;-44
2023/12/19 12:13:27;;;;;;;201.98;55.55;;;;;;;;;;4946868;29;20529;-44
2023/12/19 12:15:57;;;;;;;184.10;52.42;;;;;;;;;;4947524;28;20613;-44
2023/12/19 12:18:24;;;;;;;163.75;53.28;;;;;;;;;;4939675;29;20601;-44
2023/12/19 12:20:50;;;;;;;216.85;59.33;;;;;;;;;;4954631;28;20276;-44
2023/12/19 12:23:20;;;;;;;220.45;60.17;;;;;;;;;;4935540;29;20243;-44
2023/12/19 12:25:56;;;;;;;217.95;55.97;;;;;;;;;;4951402;29;20176;-43
2023/12/19 12:28:26;;;;;;;216.32;54.78;;;;;;;;;;4941324;28;20180;-44
2023/12/19 12:30:59;;;;;;;220.85;57.88;;;;;;;;;;4945049;28;20262;-44
2023/12/19 12:33:25;;;;;;;217.25;55.15;;;;;;;;;;4947600;28;20184;-44
2023/12/19 12:35:52;;;;;;;217.75;56.50;;;;;;;;;;4938261;29;20175;-44
2023/12/19 12:38:19;;;;;;;218.38;56.58;;;;;;;;;;4954757;28;20179;-43
2023/12/19 12:41:02;;;;;;;216.55;55.38;;;;;;;;;;4935436;28;20621;-44
2023/12/19 12:43:35;;;;;;;219.95;57.00;;;;;;;;;;4951668;28;20256;-44
2023/12/19 12:46:11;;;;;;;216.32;54.60;;;;;;;;;;4940549;28;20174;-44
2023/12/19 12:48:38;;;;;;;220.15;57.65;;;;;;;;;;4946405;29;20243;-44
2023/12/19 12:51:05;;;;;;;220.30;57.97;;;;;;;;;;4946525;28;20192;-44
2023/12/19 12:53:31;;;;;;;219.27;56.80;;;;;;;;;;4938529;29;20184;-45
2023/12/19 12:56:08;;;;;;;221.48;57.55;;;;;;;;;;4954300;28;20187;-44
2023/12/19 12:58:35;;;;;;;223.05;58.50;;;;;;;;;;4952607;29;20187;-44
2023/12/19 13:01:01;;;;;;;220.88;58.38;;;;;;;;;;4937097;28;20217;-45
2023/12/19 13:03:31;;;;;;;220.57;57.05;;;;;;;;;;4947085;29;20207;-44
2023/12/19 13:06:00;;;;;;;220.60;57.65;;;;;;;;;;4944614;28;20547;-44
2023/12/19 13:08:26;;;;;;;219.85;56.05;;;;;;;;;;4940233;29;20174;-44
2023/12/19 13:10:52;;;;;;;219.85;56.78;;;;;;;;;;4952478;28;20194;-44
2023/12/19 13:13:18;;;;;;;219.77;56.77;;;;;;;;;;4934767;29;20557;-44
2023/12/19 13:15:44;;;;;;;221.60;58.72;;;;;;;;;;4951391;29;20564;-44
2023/12/19 13:18:10;;;;;;;218.13;55.77;;;;;;;;;;4941077;28;20673;-44
2023/12/19 13:20:37;;;;;;;223.65;60.75;;;;;;;;;;4943426;28;20905;-44
2023/12/19 13:23:06;;;;;;;220.35;56.97;;;;;;;;;;4948454;28;20628;-44
2023/12/19 13:25:33;;;;;;;220.23;58.20;;;;;;;;;;4936098;29;20171;-44
2023/12/19 13:27:59;;;;;;;218.45;55.83;;;;;;;;;;4953755;28;20164;-45
2023/12/19 13:30:26;;;;;;;226.05;62.60;;;;;;;;;;4936092;28;20180;-44
2023/12/19 13:32:52;;;;;;;222.70;59.70;;;;;;;;;;4947407;29;20227;-45
2023/12/19 13:35:18;;;;;;;218.38;56.45;;;;;;;;;;4944463;28;20231;-44
2023/12/19 13:37:44;;;;;;;211.37;53.73;;;;;;;;;;4939447;29;20207;-44
2023/12/19 13:40:12;;;;;;;218.17;56.60;;;;;;;;;;4952368;28;20407;-44
2023/12/19 13:42:39;;;;;;;218.98;57.17;;;;;;;;;;4933997;29;20488;-45
2023/12/19 13:45:05;;;;;;;218.10;56.88;;;;;;;;;;4951211;29;20201;-44
2023/12/19 13:47:31;;;;;;;216.55;56.13;;;;;;;;;;4940413;28;20257;-44
2023/12/19 13:49:57;;;;;;;219.75;56.75;;;;;;;;;;4943256;29;20180;-44
2023/12/19 13:52:23;;;;;;;220.57;57.67;;;;;;;;;;4947836;28;20213;-44
2023/12/19 13:54:49;;;;;;;219.77;56.60;;;;;;;;;;4935249;29;20572;-44
2023/12/19 13:57:15;;;;;;;219.37;56.60;;;;;;;;;;4956163;28;20423;-44
2023/12/19 13:59:41;;;;;;;217.97;55.37;;;;;;;;;;4941082;28;20420;-44
2023/12/19 14:02:07;;;;;;;222.55;58.22;;;;;;;;;;4950087;29;20465;-44
2023/12/19 14:04:33;;;;;;;218.27;56.95;;;;;;;;;;4948581;28;20188;-44
2023/12/19 14:06:59;;;;;;;218.18;56.83;;;;;;;;;;4942999;29;20233;-44
2023/12/19 14:09:25;;;;;;;218.63;56.20;;;;;;;;;;4956523;28;20182;-44